Mc Shan, Alabama
Current Conditions -  °F | °C
As of 5:58 PM on Saturday 22 Nov 2014 (Local Time) from KCBM Reporting Station
Few Clouds Few Clouds  
Wind Chill: 57°   Ceiling: Unl
Heat Index: 57°   Visibility: 10mi
Dew Point: 49°   Wind: 7mph
Humidity: 74%   Direction: 140°SE
Pressure: 30.09"   Gusts: NA
Location:  33.3788°N, 88.1443°W
Report Text: KCBM 222358Z AUTO 14006KT 10SM FEW044 14/10 A3009 RMK AO2 UPB2310E2352 SLP193 P0000 60000 T01410096 10206 20130 57015 $
Loading
Personal Weather Stations






























Interactive Weather Map New forecast layout! Learn more

10-Day Weather Forecast

Advertisements
Track Severe Weather on mobile